Time;durP1;ratioP1;P1;durP2;ratioP2;P2;SDS_P1;SDS_P2;PMS_P1;PMS_P2;Temp;Humidity;BMP_temperature;BMP_pressure;BME280_temperature;BME280_humidity;BME280_pressure;Samples;Min_cycle;Max_cycle;Signal;HPM_P1;HPM_P2
2023/02/24 03:02:10;;;;;;;14.97;13.67;;;7.60;99.90;;;;;;5396868;23;20720;-81
2023/02/24 03:04:42;;;;;;;16.83;15.17;;;7.60;99.90;;;;;;4978315;28;20194;-81
2023/02/24 03:07:11;;;;;;;16.27;14.63;;;7.60;99.90;;;;;;4974459;28;20198;-81
2023/02/24 03:09:42;;;;;;;16.20;14.50;;;7.60;99.90;;;;;;4977598;28;20265;-81
2023/02/24 03:12:11;;;;;;;18.60;14.50;;;7.60;99.90;;;;;;4978633;28;20225;-81
2023/02/24 03:14:42;;;;;;;16.70;15.07;;;7.60;99.90;;;;;;4981471;28;20198;-79
2023/02/24 03:17:16;;;;;;;16.10;14.50;;;7.70;99.90;;;;;;4979733;28;20770;-78
2023/02/24 03:19:48;;;;;;;15.87;14.33;;;7.70;99.90;;;;;;4978235;28;20253;-81
2023/02/24 03:22:19;;;;;;;15.43;13.93;;;7.80;99.90;;;;;;4978549;28;20225;-80
2023/02/24 03:24:46;;;;;;;16.10;14.10;;;7.80;99.90;;;;;;4978795;28;20481;-81
2023/02/24 03:27:27;;;;;;;14.63;13.33;;;7.80;99.90;;;;;;4978389;28;20201;-79
2023/02/24 03:30:00;;;;;;;15.93;14.33;;;7.80;99.90;;;;;;4978785;28;20198;-81
2023/02/24 03:32:31;;;;;;;16.97;15.17;;;7.80;99.90;;;;;;4978246;28;20265;-79
2023/02/24 03:35:01;;;;;;;16.57;14.83;;;7.80;99.90;;;;;;4978347;28;20281;-78
2023/02/24 03:37:32;;;;;;;15.73;14.27;;;7.80;99.90;;;;;;4978968;28;20489;-81
2023/02/24 03:40:10;;;;;;;15.43;13.83;;;7.80;99.90;;;;;;4972622;28;20698;-81
2023/02/24 03:42:39;;;;;;;18.07;15.30;;;7.80;99.90;;;;;;4978816;28;20634;-79
2023/02/24 03:45:09;;;;;;;17.07;15.37;;;7.70;99.90;;;;;;4986758;28;20197;-81
2023/02/24 03:47:39;;;;;;;15.57;13.93;;;7.70;99.90;;;;;;4977670;28;20194;-80
2023/02/24 03:50:12;;;;;;;15.93;14.27;;;7.80;99.90;;;;;;4978626;28;20202;-79
2023/02/24 03:52:46;;;;;;;15.17;13.43;;;7.80;99.90;;;;;;4973583;28;20606;-83
2023/02/24 03:55:27;;;;;;;17.87;15.03;;;7.70;99.90;;;;;;4974767;28;20248;-84
2023/02/24 03:58:06;;;;;;;17.30;15.70;;;7.70;99.90;;;;;;4968928;28;20209;-82
2023/02/24 04:00:41;;;;;;;17.20;15.47;;;7.70;99.90;;;;;;4977325;28;20233;-82
2023/02/24 04:03:25;;;;;;;18.10;15.90;;;7.70;99.90;;;;;;4977004;28;20198;-78
2023/02/24 04:06:07;;;;;;;18.73;16.73;;;7.70;99.90;;;;;;4975618;28;20198;-80
2023/02/24 04:08:41;;;;;;;17.47;15.67;;;7.70;99.90;;;;;;4976471;28;20285;-81
2023/02/24 04:11:19;;;;;;;19.07;15.90;;;7.80;99.90;;;;;;4976257;28;20240;-80
2023/02/24 04:13:52;;;;;;;16.70;15.10;;;7.80;99.90;;;;;;4976093;28;20200;-81
2023/02/24 04:16:28;;;;;;;17.83;16.03;;;7.80;99.90;;;;;;4975898;28;20683;-81
2023/02/24 04:19:02;;;;;;;16.87;15.27;;;7.80;99.90;;;;;;4967683;28;20229;-78
2023/02/24 04:21:31;;;;;;;16.23;14.83;;;7.80;99.90;;;;;;4975421;28;20766;-81
2023/02/24 04:24:01;;;;;;;15.80;14.23;;;7.80;99.90;;;;;;4971115;28;20198;-81
2023/02/24 04:26:29;;;;;;;16.83;15.13;;;7.80;99.90;;;;;;4970019;28;20194;-81
2023/02/24 04:28:58;;;;;;;16.07;14.57;;;7.80;99.90;;;;;;4976479;28;20660;-82
2023/02/24 04:31:27;;;;;;;15.77;14.37;;;7.70;99.90;;;;;;4976726;28;20309;-80
2023/02/24 04:33:54;;;;;;;15.67;14.40;;;7.70;99.90;;;;;;4976054;28;20280;-82
2023/02/24 04:36:32;;;;;;;16.93;15.00;;;7.70;99.90;;;;;;4976657;28;20206;-79
2023/02/24 04:38:59;;;;;;;17.43;15.70;;;7.70;99.90;;;;;;4977051;28;20220;-81
2023/02/24 04:41:27;;;;;;;17.57;15.60;;;7.70;99.90;;;;;;4976392;28;20224;-82
2023/02/24 04:43:53;;;;;;;16.87;15.17;;;7.70;99.90;;;;;;4978880;28;20457;-81
2023/02/24 04:46:22;;;;;;;18.53;14.93;;;7.70;99.90;;;;;;4975334;28;20245;-84
2023/02/24 04:48:49;;;;;;;16.03;14.47;;;7.70;99.90;;;;;;4974521;28;20682;-83
2023/02/24 04:51:19;;;;;;;16.50;14.80;;;7.70;99.90;;;;;;4974946;28;20222;-83
2023/02/24 04:53:49;;;;;;;16.17;14.40;;;7.70;99.90;;;;;;4974505;28;20664;-82
2023/02/24 04:56:17;;;;;;;19.33;14.93;;;7.70;99.90;;;;;;4974368;28;20225;-82
2023/02/24 04:58:45;;;;;;;15.47;14.07;;;7.70;99.90;;;;;;4974150;28;20225;-81
2023/02/24 05:01:12;;;;;;;14.80;13.50;;;7.70;99.90;;;;;;4974216;28;20312;-83
2023/02/24 05:03:41;;;;;;;14.93;13.47;;;7.70;99.90;;;;;;4973642;28;20202;-90
2023/02/24 05:06:12;;;;;;;14.73;13.37;;;7.70;99.90;;;;;;4973204;28;20771;-80
2023/02/24 05:08:40;;;;;;;14.07;12.87;;;7.70;99.90;;;;;;4974096;28;20738;-82
2023/02/24 05:11:14;;;;;;;16.20;13.80;;;7.70;99.90;;;;;;4976190;28;20241;-82
2023/02/24 05:13:45;;;;;;;15.50;13.90;;;7.70;99.90;;;;;;4977410;28;20205;-81
2023/02/24 05:16:15;;;;;;;15.80;14.30;;;7.70;99.90;;;;;;4975879;28;20194;-81
2023/02/24 05:18:43;;;;;;;14.93;13.63;;;7.60;99.90;;;;;;4976293;28;20249;-81
2023/02/24 05:23:58;;;;;;;16.53;14.93;;;7.70;99.90;;;;;;4968257;28;20208;-81
2023/02/24 05:26:28;;;;;;;15.73;14.33;;;7.70;99.90;;;;;;4976779;28;20257;-81
2023/02/24 05:28:58;;;;;;;16.77;15.17;;;7.70;99.90;;;;;;4973044;28;20194;-80
2023/02/24 05:31:28;;;;;;;16.97;15.17;;;7.70;99.90;;;;;;4976613;28;20218;-81
2023/02/24 05:33:57;;;;;;;16.73;15.30;;;7.70;99.90;;;;;;4969196;28;20201;-81
2023/02/24 05:36:26;;;;;;;17.07;15.37;;;7.70;99.90;;;;;;4975875;28;20202;-81
2023/02/24 05:38:56;;;;;;;17.03;15.43;;;7.70;99.90;;;;;;4975848;28;20280;-81
2023/02/24 05:41:31;;;;;;;16.57;14.97;;;7.70;99.90;;;;;;4977341;28;20244;-81
2023/02/24 05:44:03;;;;;;;17.80;16.10;;;7.80;99.90;;;;;;4968099;28;20575;-81
2023/02/24 05:46:33;;;;;;;17.97;16.27;;;7.70;99.90;;;;;;4977228;28;20221;-81
2023/02/24 05:49:01;;;;;;;17.03;15.43;;;7.70;99.90;;;;;;4976877;28;20660;-82
2023/02/24 05:51:33;;;;;;;18.90;16.90;;;7.70;99.90;;;;;;4977324;28;20217;-81
2023/02/24 05:54:03;;;;;;;18.10;16.20;;;7.70;99.90;;;;;;4973976;28;20616;-79
2023/02/24 05:56:30;;;;;;;18.87;17.00;;;7.70;99.90;;;;;;4977514;28;20276;-82
2023/02/24 05:59:01;;;;;;;20.10;18.13;;;7.70;99.90;;;;;;4975341;28;20272;-79
2023/02/24 06:01:30;;;;;;;18.77;16.77;;;7.70;99.90;;;;;;4976933;28;20244;-81
2023/02/24 06:04:04;;;;;;;19.20;17.30;;;7.70;99.90;;;;;;4967410;28;20202;-81
2023/02/24 06:06:33;;;;;;;19.10;17.20;;;7.70;99.90;;;;;;4975803;28;20225;-81
2023/02/24 06:09:06;;;;;;;20.87;18.67;;;7.70;99.90;;;;;;4969741;28;20221;-82
2023/02/24 06:11:33;;;;;;;27.20;20.33;;;7.70;99.90;;;;;;4976680;28;20221;-82
2023/02/24 06:14:02;;;;;;;28.17;20.33;;;7.60;99.90;;;;;;4976952;28;20769;-82
2023/02/24 06:16:29;;;;;;;35.00;20.63;;;7.70;99.90;;;;;;4981559;28;20275;-81
2023/02/24 06:18:56;;;;;;;34.60;23.83;;;7.70;99.90;;;;;;4974592;28;20228;-82
2023/02/24 06:21:28;;;;;;;37.57;23.77;;;7.60;99.90;;;;;;4976028;28;20649;-82
2023/02/24 06:23:55;;;;;;;37.80;24.83;;;7.60;99.90;;;;;;4975698;28;20606;-81
2023/02/24 06:26:22;;;;;;;37.33;23.20;;;7.60;99.90;;;;;;4975416;28;20225;-82
2023/02/24 06:28:52;;;;;;;38.60;25.83;;;7.60;99.90;;;;;;4977411;28;20244;-80
2023/02/24 06:31:21;;;;;;;47.13;26.60;;;7.60;99.90;;;;;;4977135;28;20227;-81
2023/02/24 06:33:48;;;;;;;39.40;25.60;;;7.60;99.90;;;;;;4975016;28;20659;-80
2023/02/24 06:36:15;;;;;;;35.57;25.53;;;7.60;99.90;;;;;;4973827;28;20268;-83
2023/02/24 06:38:42;;;;;;;35.03;23.70;;;7.60;99.90;;;;;;4974915;28;20249;-83
2023/02/24 06:41:10;;;;;;;38.13;23.43;;;7.60;99.90;;;;;;4975287;28;20634;-83
2023/02/24 06:43:39;;;;;;;37.60;22.73;;;7.60;99.90;;;;;;4974790;28;20530;-81
2023/02/24 06:46:06;;;;;;;38.63;25.13;;;7.70;99.90;;;;;;4972707;28;20260;-79
2023/02/24 06:48:35;;;;;;;33.67;23.83;;;7.70;99.90;;;;;;4972899;28;20236;-79
2023/02/24 06:51:06;;;;;;;34.57;23.50;;;7.80;99.90;;;;;;4973540;28;20241;-79
2023/02/24 06:53:34;;;;;;;30.40;22.20;;;7.80;99.90;;;;;;4973813;28;20202;-78
2023/02/24 06:56:13;;;;;;;26.73;21.63;;;7.80;99.90;;;;;;4970376;28;20289;-78
2023/02/24 06:58:42;;;;;;;35.80;22.93;;;7.80;99.90;;;;;;4982732;28;20220;-80
2023/02/24 07:01:11;;;;;;;31.03;22.27;;;7.80;99.90;;;;;;4969528;28;20230;-80
2023/02/24 07:03:46;;;;;;;37.20;23.67;;;7.80;99.90;;;;;;4977278;28;20257;-81
2023/02/24 07:06:23;;;;;;;36.13;23.67;;;7.80;99.90;;;;;;4977320;28;20212;-80
2023/02/24 07:08:50;;;;;;;35.10;23.53;;;7.80;99.90;;;;;;4978800;28;20222;-82
2023/02/24 07:11:17;;;;;;;35.23;23.43;;;7.80;99.90;;;;;;4978231;28;20253;-87
2023/02/24 07:13:46;;;;;;;28.83;21.90;;;7.90;99.90;;;;;;4977993;28;20293;-84
2023/02/24 07:16:15;;;;;;;30.70;22.73;;;7.90;99.90;;;;;;4976899;28;20205;-84
2023/02/24 07:18:47;;;;;;;30.00;22.13;;;8.10;99.90;;;;;;4979353;28;20229;-81
2023/02/24 07:21:15;;;;;;;35.43;23.47;;;8.10;99.90;;;;;;4976516;28;20221;-83
2023/02/24 07:23:44;;;;;;;37.17;23.33;;;8.20;99.90;;;;;;4977981;28;20743;-83
2023/02/24 07:26:13;;;;;;;33.77;23.53;;;8.20;99.90;;;;;;4976051;28;20743;-80
2023/02/24 07:28:42;;;;;;;38.30;23.60;;;8.20;99.90;;;;;;4980467;28;20288;-81
2023/02/24 07:31:11;;;;;;;31.13;21.13;;;8.20;99.90;;;;;;4977355;28;20707;-85
2023/02/24 07:33:38;;;;;;;32.80;23.47;;;8.30;99.90;;;;;;4976202;28;20280;-81
2023/02/24 07:36:08;;;;;;;32.17;23.20;;;8.30;99.90;;;;;;4978193;28;20627;-82
2023/02/24 07:38:36;;;;;;;34.60;24.37;;;8.40;99.90;;;;;;4978921;28;20210;-83
2023/02/24 07:41:05;;;;;;;29.60;23.07;;;8.40;99.90;;;;;;4982585;28;20723;-83
2023/02/24 07:43:33;;;;;;;32.77;23.47;;;8.40;99.90;;;;;;4979711;28;20552;-82
2023/02/24 07:46:06;;;;;;;33.60;23.03;;;8.40;99.90;;;;;;4977203;28;20672;-83
2023/02/24 07:48:35;;;;;;;25.37;15.43;;;8.40;99.90;;;;;;4977427;28;20582;-83
2023/02/24 07:51:07;;;;;;;24.40;16.93;;;8.50;99.90;;;;;;4976314;28;20210;-83
2023/02/24 07:53:35;;;;;;;28.33;22.43;;;8.60;99.90;;;;;;4976892;28;20657;-83
2023/02/24 07:56:09;;;;;;;19.73;13.67;;;8.80;99.90;;;;;;4977133;28;20201;-81
2023/02/24 07:58:36;;;;;;;20.27;13.43;;;8.90;99.90;;;;;;4974837;28;20611;-85
2023/02/24 08:01:07;;;;;;;26.97;18.57;;;9.10;99.90;;;;;;4977187;28;20226;-83
2023/02/24 08:03:40;;;;;;;22.07;18.83;;;9.20;99.90;;;;;;4981353;28;20194;-84
2023/02/24 08:06:14;;;;;;;28.37;20.67;;;9.30;99.90;;;;;;4980510;28;20661;-83
2023/02/24 08:09:15;;;;;;;24.43;20.03;;;9.50;99.90;;;;;;4977865;28;20284;-82
2023/02/24 08:11:44;;;;;;;22.30;15.17;;;9.60;99.90;;;;;;4975704;28;20230;-83
2023/02/24 08:14:13;;;;;;;21.30;13.93;;;9.80;99.90;;;;;;4970262;28;20293;-83
2023/02/24 08:16:41;;;;;;;26.60;21.63;;;9.90;99.90;;;;;;4975193;28;20198;-83
2023/02/24 08:19:11;;;;;;;21.10;15.83;;;9.90;99.90;;;;;;4976446;28;20242;-83
2023/02/24 08:21:46;;;;;;;21.57;16.40;;;9.90;99.90;;;;;;4974366;28;20226;-80
2023/02/24 08:24:16;;;;;;;23.10;14.30;;;10.00;99.90;;;;;;4972243;28;20200;-81
2023/02/24 08:26:44;;;;;;;17.87;12.43;;;10.00;99.90;;;;;;4970265;28;20211;-82
2023/02/24 08:29:12;;;;;;;25.27;19.77;;;9.90;99.90;;;;;;4975682;28;20684;-79
2023/02/24 08:31:39;;;;;;;21.93;15.37;;;9.90;99.90;;;;;;4969065;28;20275;-79
2023/02/24 08:34:06;;;;;;;21.23;13.17;;;9.90;99.90;;;;;;4974788;28;20582;-79
2023/02/24 08:36:33;;;;;;;16.80;12.13;;;9.80;99.90;;;;;;4973766;28;20199;-80
2023/02/24 08:39:01;;;;;;;19.23;12.43;;;9.80;99.90;;;;;;4973884;28;20219;-80
2023/02/24 08:41:43;;;;;;;21.13;18.93;;;9.90;99.90;;;;;;4977631;28;20222;-80
2023/02/24 08:44:17;;;;;;;20.60;16.97;;;9.90;99.90;;;;;;4970560;28;20373;-81
2023/02/24 08:46:44;;;;;;;17.17;13.70;;;10.00;99.90;;;;;;4976709;28;20209;-81
2023/02/24 08:49:15;;;;;;;17.50;14.20;;;10.10;99.90;;;;;;4974403;28;20712;-80
2023/02/24 08:51:44;;;;;;;14.50;10.67;;;10.10;99.90;;;;;;4985668;28;20245;-80
2023/02/24 08:54:15;;;;;;;16.30;13.70;;;10.10;99.90;;;;;;4973254;28;20231;-80
2023/02/24 08:56:47;;;;;;;15.23;11.00;;;10.10;99.90;;;;;;4982576;28;20206;-80
2023/02/24 08:59:36;;;;;;;18.17;15.90;;;10.20;99.90;;;;;;4971757;28;20220;-80
2023/02/24 09:02:26;;;;;;;15.83;14.33;;;10.30;99.90;;;;;;4978904;28;20238;-80
2023/02/24 09:04:54;;;;;;;18.20;16.30;;;10.40;99.90;;;;;;4980699;28;20209;-80
2023/02/24 09:07:23;;;;;;;17.30;15.80;;;10.50;99.90;;;;;;4981712;28;20208;-80
2023/02/24 09:09:56;;;;;;;18.80;17.00;;;10.60;99.90;;;;;;4976817;28;20294;-80
2023/02/24 09:12:24;;;;;;;19.17;17.20;;;10.50;99.90;;;;;;4977083;28;20225;-79
2023/02/24 09:14:56;;;;;;;18.10;16.50;;;10.50;99.90;;;;;;4978740;28;20628;-78
2023/02/24 09:17:48;;;;;;;17.80;16.07;;;10.40;99.90;;;;;;4972764;28;20217;-79
2023/02/24 09:20:55;;;;;;;16.93;15.43;;;10.30;99.90;;;;;;4971599;28;20768;-79
2023/02/24 09:23:28;;;;;;;17.23;15.67;;;10.20;99.90;;;;;;4978703;28;20238;-80
2023/02/24 09:25:57;;;;;;;17.77;15.80;;;10.10;99.90;;;;;;4977431;28;20693;-80
2023/02/24 09:28:25;;;;;;;17.17;15.67;;;10.10;99.90;;;;;;4974976;28;20206;-79
2023/02/24 09:30:54;;;;;;;18.20;16.40;;;10.30;99.90;;;;;;4976747;28;20226;-79
2023/02/24 09:33:24;;;;;;;18.73;16.87;;;10.30;99.90;;;;;;4978332;28;20200;-79
2023/02/24 09:36:08;;;;;;;19.27;17.47;;;10.30;99.90;;;;;;4974563;28;20205;-82
2023/02/24 09:41:52;;;;;;;15.00;12.67;;;10.40;99.90;;;;;;5010447;28;20261;-80
2023/02/24 09:44:24;;;;;;;18.37;12.87;;;10.30;99.90;;;;;;4977662;28;20204;-81
2023/02/24 09:46:57;;;;;;;12.43;11.03;;;10.20;99.90;;;;;;4977881;28;20297;-81
2023/02/24 09:49:45;;;;;;;15.60;14.10;;;10.10;99.90;;;;;;4977010;28;20191;-80
2023/02/24 09:52:16;;;;;;;13.67;11.80;;;10.10;99.90;;;;;;4977248;28;20219;-80
2023/02/24 09:55:11;;;;;;;16.47;13.40;;;10.10;99.90;;;;;;4985975;28;20202;-80
2023/02/24 09:58:06;;;;;;;14.13;10.80;;;10.10;99.90;;;;;;4983468;28;20209;-80
2023/02/24 10:00:42;;;;;;;16.27;10.43;;;10.10;99.90;;;;;;4978153;28;20213;-80
2023/02/24 10:03:19;;;;;;;13.23;8.80;;;10.10;99.90;;;;;;4982961;28;20326;-80
2023/02/24 10:05:57;;;;;;;12.97;8.40;;;10.10;99.90;;;;;;4982731;28;20238;-80
2023/02/24 10:08:32;;;;;;;15.67;14.23;;;10.10;99.90;;;;;;4980896;28;20210;-80
2023/02/24 10:11:06;;;;;;;16.83;15.23;;;10.10;99.90;;;;;;4979733;28;20257;-80
2023/02/24 10:13:42;;;;;;;16.70;15.20;;;10.10;99.90;;;;;;4978882;28;20206;-80
2023/02/24 10:16:13;;;;;;;17.30;15.73;;;10.20;99.90;;;;;;4976066;28;20273;-80
2023/02/24 10:18:47;;;;;;;18.13;16.63;;;10.30;99.90;;;;;;4977881;28;20736;-80
2023/02/24 10:21:33;;;;;;;16.60;14.97;;;10.40;99.90;;;;;;4978457;28;20229;-80
2023/02/24 10:24:13;;;;;;;17.03;15.40;;;10.50;99.90;;;;;;4977480;28;20194;-80
2023/02/24 10:26:45;;;;;;;16.83;15.37;;;10.50;99.90;;;;;;4975795;28;20291;-80
2023/02/24 10:29:28;;;;;;;17.57;16.00;;;10.70;99.90;;;;;;4976768;28;20202;-80
2023/02/24 10:32:05;;;;;;;18.27;16.53;;;10.80;99.90;;;;;;4976905;28;20222;-80
2023/02/24 10:34:33;;;;;;;15.17;10.63;;;10.80;99.90;;;;;;4975794;28;20201;-80
2023/02/24 10:37:05;;;;;;;17.80;15.97;;;10.80;99.90;;;;;;4969358;28;20208;-80
2023/02/24 10:39:32;;;;;;;16.80;15.07;;;10.90;99.90;;;;;;4977408;28;20216;-80
2023/02/24 10:42:14;;;;;;;20.00;18.20;;;11.00;99.90;;;;;;4978636;28;20233;-80
2023/02/24 10:44:50;;;;;;;17.20;15.40;;;11.00;99.90;;;;;;4979886;28;20200;-80
2023/02/24 10:47:19;;;;;;;18.47;16.63;;;10.90;99.90;;;;;;4980477;28;20200;-80
2023/02/24 10:49:56;;;;;;;17.73;15.93;;;10.90;99.90;;;;;;4978568;28;20270;-79
2023/02/24 10:55:38;;;;;;;16.60;15.10;;;10.70;99.90;;;;;;4972386;28;20286;-80
2023/02/24 10:58:06;;;;;;;17.57;16.07;;;10.60;99.90;;;;;;4980325;28;20224;-80
2023/02/24 11:01:11;;;;;;;18.43;16.67;;;10.70;99.90;;;;;;4978772;28;20229;-80
2023/02/24 11:03:41;;;;;;;17.63;16.00;;;10.70;99.90;;;;;;4976500;28;20667;-80
2023/02/24 11:06:51;;;;;;;16.70;15.10;;;10.70;99.90;;;;;;4978677;28;20718;-80
2023/02/24 11:09:30;;;;;;;16.77;15.37;;;10.60;99.90;;;;;;4972632;28;20203;-80
2023/02/24 11:17:44;;;;;;;18.57;16.97;;;10.50;99.90;;;;;;4975529;28;20189;-80
2023/02/24 11:20:24;;;;;;;16.90;15.20;;;10.40;99.90;;;;;;4980632;28;20325;-80
2023/02/24 11:22:54;;;;;;;16.73;15.20;;;10.40;99.90;;;;;;4978493;28;20622;-80
2023/02/24 11:25:24;;;;;;;17.90;16.10;;;10.50;99.90;;;;;;4979308;28;20200;-80
2023/02/24 11:27:54;;;;;;;15.80;14.27;;;10.60;99.90;;;;;;4979823;28;20468;-80
2023/02/24 11:30:31;;;;;;;16.90;15.23;;;10.70;99.90;;;;;;4978178;28;20267;-80
2023/02/24 11:33:24;;;;;;;17.03;15.40;;;10.70;99.90;;;;;;4970608;28;20275;-80
2023/02/24 11:36:04;;;;;;;15.57;14.17;;;10.80;99.90;;;;;;4978671;28;20259;-80
2023/02/24 11:38:39;;;;;;;14.27;13.03;;;10.90;99.90;;;;;;4975955;28;20212;-79
2023/02/24 11:41:15;;;;;;;16.73;15.00;;;10.90;99.90;;;;;;4977236;28;20706;-80
2023/02/24 11:43:49;;;;;;;15.53;14.13;;;11.00;99.90;;;;;;4971440;28;20300;-79
2023/02/24 11:46:20;;;;;;;15.90;14.20;;;11.10;99.90;;;;;;4970113;28;20241;-79
2023/02/24 11:48:55;;;;;;;15.07;13.67;;;11.30;99.90;;;;;;4985739;28;20209;-80
2023/02/24 11:51:26;;;;;;;14.90;13.50;;;11.60;99.90;;;;;;4973868;28;20231;-80
2023/02/24 11:53:56;;;;;;;14.30;13.10;;;11.90;99.90;;;;;;4979659;28;20267;-81
2023/02/24 11:56:26;;;;;;;15.20;13.63;;;12.00;99.90;;;;;;4976418;28;20198;-80
2023/02/24 11:59:00;;;;;;;14.90;13.57;;;12.10;99.90;;;;;;4976996;28;20212;-78
2023/02/24 12:01:32;;;;;;;17.80;14.47;;;12.20;99.90;;;;;;4974924;28;20793;-81
2023/02/24 12:04:12;;;;;;;16.27;14.73;;;12.40;99.90;;;;;;4969481;28;20658;-82
2023/02/24 12:06:47;;;;;;;14.80;13.30;;;12.50;99.90;;;;;;4973828;28;20704;-81
2023/02/24 12:09:19;;;;;;;15.60;14.10;;;12.40;99.90;;;;;;4972911;28;20248;-79
2023/02/24 12:11:53;;;;;;;15.00;13.53;;;12.60;99.90;;;;;;4974533;28;20317;-78
2023/02/24 12:14:30;;;;;;;9.63;8.20;;;12.70;99.90;;;;;;4975361;28;20194;-79
2023/02/24 12:17:06;;;;;;;11.90;6.90;;;12.70;99.90;;;;;;4964503;28;20202;-78
2023/02/24 12:19:41;;;;;;;13.07;6.77;;;12.80;99.90;;;;;;4967727;28;20486;-78
2023/02/24 12:22:14;;;;;;;9.90;6.60;;;13.10;99.90;;;;;;4968457;28;20770;-78
2023/02/24 12:24:46;;;;;;;14.00;10.60;;;13.40;99.90;;;;;;4965179;28;20210;-79
2023/02/24 12:27:19;;;;;;;15.90;14.43;;;13.50;99.90;;;;;;4980539;28;20289;-78
2023/02/24 12:30:05;;;;;;;16.67;15.00;;;13.60;99.90;;;;;;4963927;28;20208;-79
2023/02/24 12:32:46;;;;;;;16.03;14.53;;;13.70;99.90;;;;;;4974723;28;20273;-78
2023/02/24 12:35:18;;;;;;;18.53;16.53;;;13.80;99.90;;;;;;4975911;28;20201;-78
2023/02/24 12:38:02;;;;;;;12.77;10.67;;;13.70;99.90;;;;;;4965165;28;20200;-78
2023/02/24 12:40:40;;;;;;;12.17;10.93;;;13.60;99.90;;;;;;4966584;28;20219;-78
2023/02/24 12:43:22;;;;;;;16.53;14.90;;;13.50;99.90;;;;;;4969312;28;20208;-79
2023/02/24 12:45:57;;;;;;;14.40;13.07;;;13.30;99.90;;;;;;4971927;28;20237;-79
2023/02/24 12:48:39;;;;;;;14.23;12.97;;;13.10;99.90;;;;;;4961070;28;20206;-79
2023/02/24 12:51:16;;;;;;;13.83;12.40;;;13.00;99.90;;;;;;4963914;28;20608;-79
2023/02/24 12:53:49;;;;;;;15.13;13.70;;;12.70;99.90;;;;;;4962083;28;20206;-79
2023/02/24 12:56:21;;;;;;;14.33;12.83;;;12.40;99.90;;;;;;4969346;28;20512;-79
2023/02/24 12:58:50;;;;;;;14.53;13.23;;;12.30;99.90;;;;;;4968200;28;20546;-79
2023/02/24 13:01:25;;;;;;;14.00;12.70;;;12.20;99.90;;;;;;4970541;28;20293;-81
2023/02/24 13:04:14;;;;;;;13.97;12.87;;;12.20;99.90;;;;;;4965008;28;20578;-83
2023/02/24 13:06:55;;;;;;;13.67;12.27;;;12.20;99.90;;;;;;4961282;28;20616;-82
2023/02/24 13:09:32;;;;;;;15.63;14.13;;;12.30;99.90;;;;;;4961276;28;20225;-82
2023/02/24 13:12:06;;;;;;;13.93;12.77;;;12.40;99.90;;;;;;4977869;28;20317;-82
2023/02/24 13:14:36;;;;;;;13.83;12.13;;;12.40;99.90;;;;;;4968887;28;20226;-82
2023/02/24 13:17:06;;;;;;;15.17;13.57;;;12.40;99.90;;;;;;4965026;28;20202;-82
2023/02/24 13:19:32;;;;;;;14.60;13.40;;;12.40;99.90;;;;;;4962897;28;20784;-79
2023/02/24 13:22:07;;;;;;;14.80;13.50;;;12.50;99.90;;;;;;4969210;28;20276;-79
2023/02/24 13:24:36;;;;;;;15.87;14.13;;;12.60;99.90;;;;;;4971458;28;20217;-79
2023/02/24 13:27:07;;;;;;;14.80;13.57;;;12.60;99.90;;;;;;4969400;28;20602;-79
2023/02/24 13:29:45;;;;;;;15.63;14.13;;;12.60;99.90;;;;;;4973554;28;20628;-79
2023/02/24 13:32:27;;;;;;;15.50;13.90;;;12.50;99.90;;;;;;4965882;28;20221;-79
2023/02/24 13:34:55;;;;;;;14.07;12.97;;;12.50;99.90;;;;;;4971110;28;20201;-79
2023/02/24 13:37:33;;;;;;;15.07;13.57;;;12.40;99.90;;;;;;4974311;28;20205;-80
2023/02/24 13:40:00;;;;;;;14.53;13.23;;;12.30;99.90;;;;;;4975847;28;20209;-80
2023/02/24 13:42:28;;;;;;;14.73;13.47;;;12.30;99.90;;;;;;4972464;28;20662;-79
2023/02/24 13:45:05;;;;;;;14.13;12.83;;;12.20;99.90;;;;;;4973808;28;20731;-79
2023/02/24 13:47:51;;;;;;;13.87;12.67;;;12.30;99.90;;;;;;4973918;28;20198;-79
2023/02/24 13:50:24;;;;;;;15.87;14.20;;;12.30;99.90;;;;;;4987187;28;20249;-79
2023/02/24 13:53:10;;;;;;;15.30;13.87;;;12.30;99.90;;;;;;4973965;28;20233;-79
2023/02/24 13:55:50;;;;;;;15.07;13.67;;;12.20;99.90;;;;;;4965410;28;20195;-79
2023/02/24 13:58:33;;;;;;;14.40;13.10;;;12.20;99.90;;;;;;4972301;28;20334;-80
2023/02/24 14:01:08;;;;;;;13.83;12.53;;;12.20;99.90;;;;;;4972947;28;20252;-79
2023/02/24 14:03:39;;;;;;;14.20;13.00;;;12.20;99.90;;;;;;4966043;28;20197;-79
2023/02/24 14:06:11;;;;;;;14.97;13.07;;;12.20;99.90;;;;;;4967267;28;20683;-79
2023/02/24 14:08:45;;;;;;;14.53;13.23;;;12.30;99.90;;;;;;4971046;28;20197;-79
2023/02/24 14:11:15;;;;;;;14.13;12.83;;;12.30;99.90;;;;;;4964486;28;20222;-79
2023/02/24 14:13:46;;;;;;;14.47;13.13;;;12.20;99.90;;;;;;4963085;28;20213;-80
2023/02/24 14:16:19;;;;;;;14.80;13.43;;;12.20;99.90;;;;;;4974525;28;20202;-80
2023/02/24 14:18:53;;;;;;;15.03;13.50;;;12.10;99.90;;;;;;4965437;28;20206;-80
2023/02/24 14:21:21;;;;;;;15.30;13.97;;;12.10;99.90;;;;;;4963941;28;20253;-79
2023/02/24 14:23:57;;;;;;;14.97;13.67;;;12.00;99.90;;;;;;4963619;28;20698;-79
2023/02/24 14:26:24;;;;;;;15.87;14.43;;;12.00;99.90;;;;;;4972067;28;20330;-79
2023/02/24 14:28:55;;;;;;;15.00;13.50;;;11.90;99.90;;;;;;4963568;28;20260;-79
2023/02/24 14:31:24;;;;;;;14.80;13.40;;;11.90;99.90;;;;;;4973012;28;20224;-79
2023/02/24 14:33:57;;;;;;;14.17;12.97;;;11.90;99.90;;;;;;4962326;28;20209;-79
2023/02/24 14:36:27;;;;;;;13.23;12.13;;;11.80;99.90;;;;;;4962166;28;20570;-79
2023/02/24 14:39:08;;;;;;;15.53;13.50;;;11.80;99.90;;;;;;4963295;28;20252;-78
2023/02/24 14:41:35;;;;;;;12.93;12.00;;;11.80;99.90;;;;;;4962436;28;20226;-79
2023/02/24 14:44:17;;;;;;;16.67;13.17;;;11.70;99.90;;;;;;4965781;28;20197;-78
2023/02/24 14:46:48;;;;;;;13.77;12.37;;;11.70;99.90;;;;;;4961461;28;20625;-79
2023/02/24 14:49:20;;;;;;;14.00;12.80;;;11.70;99.90;;;;;;4973122;28;20273;-79
2023/02/24 14:51:50;;;;;;;14.00;12.80;;;11.60;99.90;;;;;;4961648;28;20218;-79
2023/02/24 14:54:24;;;;;;;14.30;12.87;;;11.60;99.90;;;;;;4959418;28;20230;-79
2023/02/24 14:56:52;;;;;;;14.00;12.63;;;11.60;99.90;;;;;;4963247;28;20276;-79
2023/02/24 14:59:28;;;;;;;13.17;11.90;;;11.50;99.90;;;;;;4962470;28;20204;-79
2023/02/24 15:01:57;;;;;;;14.10;12.70;;;11.50;99.90;;;;;;4964870;28;20623;-78
2023/02/24 15:04:33;;;;;;;17.70;13.43;;;11.50;99.90;;;;;;4962000;28;20209;-79
2023/02/24 15:07:02;;;;;;;14.93;13.50;;;11.40;99.90;;;;;;4964895;28;20198;-79
2023/02/24 15:09:36;;;;;;;13.70;12.50;;;11.30;99.90;;;;;;4963769;28;20225;-79
2023/02/24 15:12:19;;;;;;;14.07;12.77;;;11.20;99.90;;;;;;4967983;28;20769;-79
2023/02/24 15:14:50;;;;;;;14.10;12.77;;;11.20;99.90;;;;;;4962512;28;20209;-79
2023/02/24 15:17:20;;;;;;;14.13;12.83;;;11.20;99.90;;;;;;4966378;28;20200;-80
2023/02/24 15:19:53;;;;;;;13.60;12.20;;;11.10;99.90;;;;;;4974422;28;20266;-79
2023/02/24 15:22:27;;;;;;;13.60;12.40;;;11.20;99.90;;;;;;5090603;23;20244;-81
2023/02/24 15:25:42;;;;;;;13.37;12.07;;;11.20;99.90;;;;;;4955486;29;20203;-82
2023/02/24 15:28:24;;;;;;;14.13;12.63;;;11.10;99.90;;;;;;4929162;28;20205;-80
2023/02/24 15:31:04;;;;;;;13.17;12.00;;;11.10;99.90;;;;;;4953502;29;20214;-82
2023/02/24 15:33:36;;;;;;;13.80;12.63;;;11.10;99.90;;;;;;4938449;29;20295;-80
2023/02/24 15:36:10;;;;;;;13.60;12.40;;;11.10;99.90;;;;;;4936355;29;20624;-79
2023/02/24 15:38:39;;;;;;;12.77;11.57;;;11.10;99.90;;;;;;4937857;29;20279;-79
2023/02/24 15:41:10;;;;;;;14.03;12.43;;;11.10;99.90;;;;;;4943756;29;20225;-79
2023/02/24 15:43:39;;;;;;;13.07;11.93;;;11.20;99.90;;;;;;4942616;29;20198;-79
2023/02/24 15:46:25;;;;;;;13.87;12.47;;;11.20;99.90;;;;;;4941927;29;20618;-79
2023/02/24 15:48:54;;;;;;;12.53;11.43;;;11.20;99.90;;;;;;4947016;29;20213;-80
2023/02/24 15:51:29;;;;;;;14.30;13.00;;;11.20;99.90;;;;;;4949679;29;20221;-79
2023/02/24 15:53:56;;;;;;;13.50;12.30;;;11.20;99.90;;;;;;4944877;29;20217;-79
2023/02/24 15:56:24;;;;;;;13.10;12.00;;;11.20;99.90;;;;;;4943938;29;20278;-80
2023/02/24 15:58:51;;;;;;;13.60;12.27;;;11.20;99.90;;;;;;4944267;29;20202;-80
2023/02/24 16:01:18;;;;;;;14.07;12.87;;;11.10;99.90;;;;;;4941217;29;20254;-81
2023/02/24 16:03:45;;;;;;;15.20;12.20;;;11.10;99.90;;;;;;4939721;29;20229;-81
2023/02/24 16:06:18;;;;;;;14.03;12.93;;;11.10;99.90;;;;;;4940274;29;20236;-81
2023/02/24 16:08:46;;;;;;;14.97;13.53;;;11.10;99.90;;;;;;4943692;29;20238;-80
2023/02/24 16:11:14;;;;;;;14.73;13.43;;;11.00;99.90;;;;;;4944743;29;20218;-81
2023/02/24 16:13:47;;;;;;;14.43;13.13;;;11.00;99.90;;;;;;4945127;29;20206;-79
2023/02/24 16:16:14;;;;;;;13.63;12.37;;;11.00;99.90;;;;;;4944765;29;20260;-81